sensor_id;sensor_type;location;lat;lon;timestamp;P1;durP1;ratioP1;P2;durP2;ratioP2
16401;SDS011;8310;44.626;11.176;2023-10-09T00:02:06;17.45;;;4.18;;
16401;SDS011;8310;44.626;11.176;2023-10-09T00:04:34;10.13;;;3.70;;
16401;SDS011;8310;44.626;11.176;2023-10-09T00:07:02;15.60;;;3.70;;
16401;SDS011;8310;44.626;11.176;2023-10-09T00:09:33;14.00;;;3.85;;
16401;SDS011;8310;44.626;11.176;2023-10-09T00:12:11;13.07;;;3.92;;
16401;SDS011;8310;44.626;11.176;2023-10-09T00:14:42;12.70;;;3.85;;
16401;SDS011;8310;44.626;11.176;2023-10-09T00:17:14;13.60;;;3.80;;
16401;SDS011;8310;44.626;11.176;2023-10-09T00:19:45;8.70;;;3.90;;
16401;SDS011;8310;44.626;11.176;2023-10-09T00:22:15;15.00;;;3.83;;
16401;SDS011;8310;44.626;11.176;2023-10-09T00:24:58;15.73;;;3.47;;
16401;SDS011;8310;44.626;11.176;2023-10-09T00:27:41;15.90;;;4.47;;
16401;SDS011;8310;44.626;11.176;2023-10-09T00:30:13;15.63;;;3.80;;
16401;SDS011;8310;44.626;11.176;2023-10-09T00:32:43;13.38;;;3.40;;
16401;SDS011;8310;44.626;11.176;2023-10-09T00:35:18;11.27;;;3.53;;
16401;SDS011;8310;44.626;11.176;2023-10-09T00:38:02;10.38;;;3.75;;
16401;SDS011;8310;44.626;11.176;2023-10-09T00:40:33;14.52;;;3.95;;
16401;SDS011;8310;44.626;11.176;2023-10-09T00:43:10;11.18;;;3.72;;
16401;SDS011;8310;44.626;11.176;2023-10-09T00:45:40;11.30;;;3.97;;
16401;SDS011;8310;44.626;11.176;2023-10-09T00:48:09;14.35;;;4.40;;
16401;SDS011;8310;44.626;11.176;2023-10-09T00:50:48;14.95;;;4.30;;
16401;SDS011;8310;44.626;11.176;2023-10-09T00:53:19;14.32;;;4.68;;
16401;SDS011;8310;44.626;11.176;2023-10-09T00:55:56;18.80;;;5.97;;
16401;SDS011;8310;44.626;11.176;2023-10-09T00:58:28;15.40;;;5.47;;
16401;SDS011;8310;44.626;11.176;2023-10-09T01:00:57;16.42;;;5.68;;
16401;SDS011;8310;44.626;11.176;2023-10-09T01:03:29;14.30;;;5.72;;
16401;SDS011;8310;44.626;11.176;2023-10-09T01:05:59;23.52;;;5.15;;
16401;SDS011;8310;44.626;11.176;2023-10-09T01:08:41;19.15;;;5.55;;
16401;SDS011;8310;44.626;11.176;2023-10-09T01:11:20;13.05;;;5.22;;
16401;SDS011;8310;44.626;11.176;2023-10-09T01:13:49;12.63;;;4.28;;
16401;SDS011;8310;44.626;11.176;2023-10-09T01:16:26;12.82;;;4.38;;
16401;SDS011;8310;44.626;11.176;2023-10-09T01:18:56;15.50;;;3.88;;
16401;SDS011;8310;44.626;11.176;2023-10-09T01:23:53;13.68;;;4.38;;
16401;SDS011;8310;44.626;11.176;2023-10-09T01:26:34;16.35;;;4.72;;
16401;SDS011;8310;44.626;11.176;2023-10-09T01:29:09;13.00;;;4.70;;
16401;SDS011;8310;44.626;11.176;2023-10-09T01:31:39;14.25;;;5.03;;
16401;SDS011;8310;44.626;11.176;2023-10-09T01:34:11;20.58;;;5.00;;
16401;SDS011;8310;44.626;11.176;2023-10-09T01:36:40;14.98;;;5.07;;
16401;SDS011;8310;44.626;11.176;2023-10-09T01:41:48;19.33;;;6.78;;
16401;SDS011;8310;44.626;11.176;2023-10-09T01:44:23;16.42;;;6.65;;
16401;SDS011;8310;44.626;11.176;2023-10-09T01:46:51;21.58;;;8.82;;
16401;SDS011;8310;44.626;11.176;2023-10-09T01:49:20;21.42;;;8.30;;
16401;SDS011;8310;44.626;11.176;2023-10-09T01:51:54;21.17;;;7.68;;
16401;SDS011;8310;44.626;11.176;2023-10-09T01:54:26;16.75;;;7.60;;
16401;SDS011;8310;44.626;11.176;2023-10-09T01:57:08;21.42;;;6.97;;
16401;SDS011;8310;44.626;11.176;2023-10-09T01:59:40;19.98;;;6.65;;
16401;SDS011;8310;44.626;11.176;2023-10-09T02:02:12;18.98;;;7.10;;
16401;SDS011;8310;44.626;11.176;2023-10-09T02:04:57;13.88;;;6.03;;
16401;SDS011;8310;44.626;11.176;2023-10-09T02:07:48;17.95;;;5.47;;
16401;SDS011;8310;44.626;11.176;2023-10-09T02:10:20;16.02;;;6.07;;
16401;SDS011;8310;44.626;11.176;2023-10-09T02:12:50;25.33;;;6.75;;
16401;SDS011;8310;44.626;11.176;2023-10-09T02:15:19;19.75;;;6.30;;
16401;SDS011;8310;44.626;11.176;2023-10-09T02:18:05;21.17;;;6.30;;
16401;SDS011;8310;44.626;11.176;2023-10-09T02:20:43;20.17;;;6.85;;
16401;SDS011;8310;44.626;11.176;2023-10-09T02:23:11;23.75;;;6.85;;
16401;SDS011;8310;44.626;11.176;2023-10-09T02:25:41;19.98;;;6.40;;
16401;SDS011;8310;44.626;11.176;2023-10-09T02:28:09;16.25;;;7.28;;
16401;SDS011;8310;44.626;11.176;2023-10-09T02:30:42;27.15;;;6.93;;
16401;SDS011;8310;44.626;11.176;2023-10-09T02:33:12;22.92;;;7.25;;
16401;SDS011;8310;44.626;11.176;2023-10-09T02:35:43;14.57;;;5.90;;
16401;SDS011;8310;44.626;11.176;2023-10-09T02:38:16;16.88;;;7.38;;
16401;SDS011;8310;44.626;11.176;2023-10-09T02:40:51;17.75;;;7.47;;
16401;SDS011;8310;44.626;11.176;2023-10-09T02:43:43;20.33;;;7.25;;
16401;SDS011;8310;44.626;11.176;2023-10-09T02:46:13;18.52;;;7.50;;
16401;SDS011;8310;44.626;11.176;2023-10-09T02:48:43;24.15;;;7.45;;
16401;SDS011;8310;44.626;11.176;2023-10-09T02:51:15;21.88;;;6.90;;
16401;SDS011;8310;44.626;11.176;2023-10-09T02:53:57;22.10;;;7.13;;
16401;SDS011;8310;44.626;11.176;2023-10-09T02:56:34;17.85;;;7.47;;
16401;SDS011;8310;44.626;11.176;2023-10-09T02:59:09;21.77;;;7.72;;
16401;SDS011;8310;44.626;11.176;2023-10-09T03:01:39;17.77;;;6.60;;
16401;SDS011;8310;44.626;11.176;2023-10-09T03:04:07;13.68;;;7.05;;
16401;SDS011;8310;44.626;11.176;2023-10-09T03:06:39;19.05;;;7.35;;
16401;SDS011;8310;44.626;11.176;2023-10-09T03:09:14;19.30;;;8.27;;
16401;SDS011;8310;44.626;11.176;2023-10-09T03:11:53;14.02;;;6.57;;
16401;SDS011;8310;44.626;11.176;2023-10-09T03:14:25;17.65;;;6.65;;
16401;SDS011;8310;44.626;11.176;2023-10-09T03:16:54;21.63;;;6.97;;
16401;SDS011;8310;44.626;11.176;2023-10-09T03:21:52;17.83;;;7.88;;
16401;SDS011;8310;44.626;11.176;2023-10-09T03:24:19;20.38;;;7.55;;
16401;SDS011;8310;44.626;11.176;2023-10-09T03:26:47;23.60;;;7.82;;
16401;SDS011;8310;44.626;11.176;2023-10-09T03:29:16;19.75;;;8.35;;
16401;SDS011;8310;44.626;11.176;2023-10-09T03:31:44;22.55;;;7.20;;
16401;SDS011;8310;44.626;11.176;2023-10-09T03:34:11;19.85;;;6.90;;
16401;SDS011;8310;44.626;11.176;2023-10-09T03:36:40;21.80;;;7.60;;
16401;SDS011;8310;44.626;11.176;2023-10-09T03:39:08;14.93;;;6.13;;
16401;SDS011;8310;44.626;11.176;2023-10-09T03:41:50;20.83;;;6.63;;
16401;SDS011;8310;44.626;11.176;2023-10-09T03:44:20;17.83;;;6.68;;
16401;SDS011;8310;44.626;11.176;2023-10-09T03:46:49;19.48;;;6.05;;
16401;SDS011;8310;44.626;11.176;2023-10-09T03:49:17;22.80;;;6.63;;
16401;SDS011;8310;44.626;11.176;2023-10-09T03:51:49;21.27;;;6.45;;
16401;SDS011;8310;44.626;11.176;2023-10-09T03:54:17;16.70;;;7.22;;
16401;SDS011;8310;44.626;11.176;2023-10-09T03:56:45;20.67;;;6.20;;
16401;SDS011;8310;44.626;11.176;2023-10-09T03:59:15;14.60;;;6.50;;
16401;SDS011;8310;44.626;11.176;2023-10-09T04:01:44;16.45;;;6.30;;
16401;SDS011;8310;44.626;11.176;2023-10-09T04:04:13;20.13;;;6.63;;
16401;SDS011;8310;44.626;11.176;2023-10-09T04:06:41;28.13;;;7.45;;
16401;SDS011;8310;44.626;11.176;2023-10-09T04:09:08;17.92;;;6.40;;
16401;SDS011;8310;44.626;11.176;2023-10-09T04:12:00;16.38;;;6.20;;
16401;SDS011;8310;44.626;11.176;2023-10-09T04:14:45;17.58;;;6.43;;
16401;SDS011;8310;44.626;11.176;2023-10-09T04:17:21;17.55;;;5.95;;
16401;SDS011;8310;44.626;11.176;2023-10-09T04:20:01;19.98;;;5.55;;
16401;SDS011;8310;44.626;11.176;2023-10-09T04:22:46;22.90;;;5.55;;
16401;SDS011;8310;44.626;11.176;2023-10-09T04:25:16;13.82;;;5.85;;
16401;SDS011;8310;44.626;11.176;2023-10-09T04:27:51;15.13;;;5.35;;
16401;SDS011;8310;44.626;11.176;2023-10-09T04:30:26;13.68;;;5.88;;
16401;SDS011;8310;44.626;11.176;2023-10-09T04:32:55;16.00;;;5.35;;
16401;SDS011;8310;44.626;11.176;2023-10-09T04:35:30;16.00;;;5.03;;
16401;SDS011;8310;44.626;11.176;2023-10-09T04:37:58;18.73;;;5.53;;
16401;SDS011;8310;44.626;11.176;2023-10-09T04:40:31;19.58;;;5.10;;
16401;SDS011;8310;44.626;11.176;2023-10-09T04:43:24;19.48;;;5.05;;
16401;SDS011;8310;44.626;11.176;2023-10-09T04:45:51;14.85;;;5.90;;
16401;SDS011;8310;44.626;11.176;2023-10-09T04:48:39;17.77;;;5.00;;
16401;SDS011;8310;44.626;11.176;2023-10-09T04:51:10;15.52;;;5.30;;
16401;SDS011;8310;44.626;11.176;2023-10-09T04:53:46;21.48;;;5.05;;
16401;SDS011;8310;44.626;11.176;2023-10-09T04:56:20;13.50;;;4.20;;
16401;SDS011;8310;44.626;11.176;2023-10-09T04:58:49;19.05;;;5.13;;
16401;SDS011;8310;44.626;11.176;2023-10-09T05:01:28;14.48;;;4.75;;
16401;SDS011;8310;44.626;11.176;2023-10-09T05:04:10;22.80;;;5.20;;
16401;SDS011;8310;44.626;11.176;2023-10-09T05:07:00;16.50;;;4.57;;
16401;SDS011;8310;44.626;11.176;2023-10-09T05:09:48;21.83;;;5.13;;
16401;SDS011;8310;44.626;11.176;2023-10-09T05:12:42;15.32;;;4.40;;
16401;SDS011;8310;44.626;11.176;2023-10-09T05:15:21;18.95;;;4.50;;
16401;SDS011;8310;44.626;11.176;2023-10-09T05:17:52;13.63;;;4.45;;
16401;SDS011;8310;44.626;11.176;2023-10-09T05:20:23;14.27;;;4.55;;
16401;SDS011;8310;44.626;11.176;2023-10-09T05:23:07;22.70;;;4.32;;
16401;SDS011;8310;44.626;11.176;2023-10-09T05:26:14;25.25;;;4.35;;
16401;SDS011;8310;44.626;11.176;2023-10-09T05:29:02;16.50;;;3.65;;
16401;SDS011;8310;44.626;11.176;2023-10-09T05:31:44;27.55;;;4.93;;
16401;SDS011;8310;44.626;11.176;2023-10-09T05:34:21;21.83;;;3.97;;
16401;SDS011;8310;44.626;11.176;2023-10-09T05:36:48;19.17;;;3.78;;
16401;SDS011;8310;44.626;11.176;2023-10-09T05:39:16;34.22;;;3.58;;
16401;SDS011;8310;44.626;11.176;2023-10-09T05:41:46;35.08;;;4.53;;
16401;SDS011;8310;44.626;11.176;2023-10-09T05:44:17;28.30;;;3.15;;
16401;SDS011;8310;44.626;11.176;2023-10-09T05:47:13;19.67;;;3.35;;
16401;SDS011;8310;44.626;11.176;2023-10-09T05:52:44;16.42;;;3.63;;
16401;SDS011;8310;44.626;11.176;2023-10-09T05:55:30;17.60;;;3.28;;
16401;SDS011;8310;44.626;11.176;2023-10-09T05:58:16;14.70;;;3.25;;
16401;SDS011;8310;44.626;11.176;2023-10-09T06:01:01;23.35;;;3.67;;
16401;SDS011;8310;44.626;11.176;2023-10-09T06:03:51;30.38;;;3.45;;
16401;SDS011;8310;44.626;11.176;2023-10-09T06:06:29;16.67;;;3.40;;
16401;SDS011;8310;44.626;11.176;2023-10-09T06:09:02;16.67;;;3.15;;
16401;SDS011;8310;44.626;11.176;2023-10-09T06:11:53;20.48;;;3.30;;
16401;SDS011;8310;44.626;11.176;2023-10-09T06:14:39;19.63;;;3.33;;
16401;SDS011;8310;44.626;11.176;2023-10-09T06:17:23;21.38;;;3.40;;
16401;SDS011;8310;44.626;11.176;2023-10-09T06:19:52;26.20;;;3.78;;
16401;SDS011;8310;44.626;11.176;2023-10-09T06:22:44;19.40;;;3.33;;
16401;SDS011;8310;44.626;11.176;2023-10-09T06:25:23;20.73;;;3.33;;
16401;SDS011;8310;44.626;11.176;2023-10-09T06:27:58;25.88;;;4.13;;
16401;SDS011;8310;44.626;11.176;2023-10-09T06:30:26;24.27;;;3.85;;
16401;SDS011;8310;44.626;11.176;2023-10-09T06:32:54;19.17;;;2.97;;
16401;SDS011;8310;44.626;11.176;2023-10-09T06:35:44;20.33;;;2.90;;
16401;SDS011;8310;44.626;11.176;2023-10-09T06:38:19;26.65;;;3.63;;
16401;SDS011;8310;44.626;11.176;2023-10-09T06:40:58;21.70;;;3.45;;
16401;SDS011;8310;44.626;11.176;2023-10-09T06:43:43;27.30;;;3.67;;
16401;SDS011;8310;44.626;11.176;2023-10-09T06:46:17;14.60;;;3.05;;
16401;SDS011;8310;44.626;11.176;2023-10-09T06:49:09;14.90;;;3.20;;
16401;SDS011;8310;44.626;11.176;2023-10-09T06:51:58;19.02;;;3.97;;
16401;SDS011;8310;44.626;11.176;2023-10-09T06:54:40;16.23;;;3.92;;
16401;SDS011;8310;44.626;11.176;2023-10-09T06:57:15;18.48;;;3.70;;
16401;SDS011;8310;44.626;11.176;2023-10-09T07:00:03;18.83;;;3.90;;
16401;SDS011;8310;44.626;11.176;2023-10-09T07:02:50;39.47;;;4.18;;
16401;SDS011;8310;44.626;11.176;2023-10-09T07:05:18;25.55;;;4.93;;
16401;SDS011;8310;44.626;11.176;2023-10-09T07:07:56;19.13;;;4.00;;
16401;SDS011;8310;44.626;11.176;2023-10-09T07:10:42;29.25;;;3.97;;
16401;SDS011;8310;44.626;11.176;2023-10-09T07:13:27;29.45;;;4.00;;
16401;SDS011;8310;44.626;11.176;2023-10-09T07:15:53;25.20;;;4.07;;
16401;SDS011;8310;44.626;11.176;2023-10-09T07:18:55;17.73;;;4.13;;
16401;SDS011;8310;44.626;11.176;2023-10-09T07:21:34;25.40;;;4.47;;
16401;SDS011;8310;44.626;11.176;2023-10-09T07:24:04;18.75;;;3.42;;
16401;SDS011;8310;44.626;11.176;2023-10-09T07:26:42;19.15;;;3.58;;
16401;SDS011;8310;44.626;11.176;2023-10-09T07:29:18;22.75;;;4.25;;
16401;SDS011;8310;44.626;11.176;2023-10-09T07:31:48;19.77;;;4.25;;
16401;SDS011;8310;44.626;11.176;2023-10-09T07:36:57;23.15;;;3.92;;
16401;SDS011;8310;44.626;11.176;2023-10-09T07:39:28;20.02;;;4.05;;
16401;SDS011;8310;44.626;11.176;2023-10-09T07:42:00;16.90;;;4.65;;
16401;SDS011;8310;44.626;11.176;2023-10-09T07:44:40;16.52;;;4.00;;
16401;SDS011;8310;44.626;11.176;2023-10-09T07:47:18;24.25;;;3.72;;
16401;SDS011;8310;44.626;11.176;2023-10-09T07:50:12;18.23;;;4.03;;
16401;SDS011;8310;44.626;11.176;2023-10-09T07:52:46;26.73;;;3.60;;
16401;SDS011;8310;44.626;11.176;2023-10-09T07:55:15;19.77;;;3.67;;
16401;SDS011;8310;44.626;11.176;2023-10-09T07:57:51;27.63;;;3.72;;
16401;SDS011;8310;44.626;11.176;2023-10-09T08:00:18;16.80;;;3.50;;
16401;SDS011;8310;44.626;11.176;2023-10-09T08:03:23;21.40;;;3.35;;
16401;SDS011;8310;44.626;11.176;2023-10-09T08:05:52;19.83;;;4.05;;
16401;SDS011;8310;44.626;11.176;2023-10-09T08:08:32;20.40;;;3.75;;
16401;SDS011;8310;44.626;11.176;2023-10-09T08:11:28;18.70;;;3.67;;
16401;SDS011;8310;44.626;11.176;2023-10-09T08:14:25;16.60;;;3.65;;
16401;SDS011;8310;44.626;11.176;2023-10-09T08:17:05;23.90;;;3.85;;
16401;SDS011;8310;44.626;11.176;2023-10-09T08:19:41;19.60;;;3.10;;
16401;SDS011;8310;44.626;11.176;2023-10-09T08:22:33;18.48;;;3.40;;
16401;SDS011;8310;44.626;11.176;2023-10-09T08:25:15;23.42;;;4.15;;
16401;SDS011;8310;44.626;11.176;2023-10-09T08:27:54;21.30;;;4.05;;
16401;SDS011;8310;44.626;11.176;2023-10-09T08:30:22;17.38;;;4.18;;
16401;SDS011;8310;44.626;11.176;2023-10-09T08:33:12;21.83;;;4.18;;
16401;SDS011;8310;44.626;11.176;2023-10-09T08:35:56;25.45;;;4.10;;
16401;SDS011;8310;44.626;11.176;2023-10-09T08:38:31;25.52;;;3.30;;
16401;SDS011;8310;44.626;11.176;2023-10-09T08:41:06;19.33;;;3.67;;
16401;SDS011;8310;44.626;11.176;2023-10-09T08:43:41;22.42;;;3.72;;
16401;SDS011;8310;44.626;11.176;2023-10-09T08:46:15;18.92;;;3.78;;
16401;SDS011;8310;44.626;11.176;2023-10-09T08:48:48;23.80;;;3.45;;
16401;SDS011;8310;44.626;11.176;2023-10-09T08:51:16;23.13;;;4.43;;
16401;SDS011;8310;44.626;11.176;2023-10-09T08:53:46;22.85;;;3.70;;
16401;SDS011;8310;44.626;11.176;2023-10-09T08:56:14;20.48;;;3.47;;
16401;SDS011;8310;44.626;11.176;2023-10-09T08:58:47;20.25;;;3.85;;
16401;SDS011;8310;44.626;11.176;2023-10-09T09:01:20;17.00;;;3.38;;
16401;SDS011;8310;44.626;11.176;2023-10-09T09:03:49;34.53;;;4.38;;
16401;SDS011;8310;44.626;11.176;2023-10-09T09:06:20;24.30;;;3.70;;
16401;SDS011;8310;44.626;11.176;2023-10-09T09:08:50;19.10;;;3.55;;
16401;SDS011;8310;44.626;11.176;2023-10-09T09:11:20;16.85;;;3.60;;
16401;SDS011;8310;44.626;11.176;2023-10-09T09:13:59;24.73;;;3.63;;
16401;SDS011;8310;44.626;11.176;2023-10-09T09:16:30;20.98;;;4.13;;
16401;SDS011;8310;44.626;11.176;2023-10-09T09:19:00;21.05;;;3.90;;
16401;SDS011;8310;44.626;11.176;2023-10-09T09:21:30;20.63;;;3.60;;
16401;SDS011;8310;44.626;11.176;2023-10-09T09:24:05;18.25;;;3.83;;
16401;SDS011;8310;44.626;11.176;2023-10-09T09:26:52;14.18;;;3.58;;
16401;SDS011;8310;44.626;11.176;2023-10-09T09:29:37;23.77;;;3.80;;
16401;SDS011;8310;44.626;11.176;2023-10-09T09:32:07;24.45;;;3.83;;
16401;SDS011;8310;44.626;11.176;2023-10-09T09:34:45;22.17;;;4.18;;
16401;SDS011;8310;44.626;11.176;2023-10-09T09:37:18;26.65;;;4.05;;
16401;SDS011;8310;44.626;11.176;2023-10-09T09:39:48;21.20;;;3.50;;
16401;SDS011;8310;44.626;11.176;2023-10-09T09:42:16;19.10;;;3.38;;
16401;SDS011;8310;44.626;11.176;2023-10-09T09:44:50;23.92;;;4.25;;
16401;SDS011;8310;44.626;11.176;2023-10-09T09:49:52;20.27;;;3.65;;
16401;SDS011;8310;44.626;11.176;2023-10-09T09:52:24;32.60;;;4.28;;
16401;SDS011;8310;44.626;11.176;2023-10-09T09:54:54;23.42;;;3.20;;
16401;SDS011;8310;44.626;11.176;2023-10-09T09:57:24;27.85;;;4.38;;
16401;SDS011;8310;44.626;11.176;2023-10-09T09:59:54;29.63;;;4.43;;
16401;SDS011;8310;44.626;11.176;2023-10-09T10:02:25;24.42;;;3.83;;
16401;SDS011;8310;44.626;11.176;2023-10-09T10:04:59;20.30;;;3.47;;
16401;SDS011;8310;44.626;11.176;2023-10-09T10:07:30;25.02;;;3.85;;
16401;SDS011;8310;44.626;11.176;2023-10-09T10:16:25;21.25;;;3.90;;
16401;SDS011;8310;44.626;11.176;2023-10-09T10:19:00;22.02;;;3.85;;
16401;SDS011;8310;44.626;11.176;2023-10-09T10:21:47;17.23;;;3.55;;
16401;SDS011;8310;44.626;11.176;2023-10-09T10:27:21;24.02;;;2.97;;
16401;SDS011;8310;44.626;11.176;2023-10-09T10:32:57;25.33;;;3.22;;
16401;SDS011;8310;44.626;11.176;2023-10-09T10:35:34;22.52;;;3.70;;
16401;SDS011;8310;44.626;11.176;2023-10-09T10:38:23;20.20;;;3.63;;
16401;SDS011;8310;44.626;11.176;2023-10-09T10:41:10;76.55;;;5.75;;
16401;SDS011;8310;44.626;11.176;2023-10-09T10:43:44;21.08;;;3.60;;
16401;SDS011;8310;44.626;11.176;2023-10-09T10:46:24;39.65;;;3.85;;
16401;SDS011;8310;44.626;11.176;2023-10-09T10:49:03;21.23;;;3.85;;
16401;SDS011;8310;44.626;11.176;2023-10-09T10:51:45;22.25;;;3.45;;
16401;SDS011;8310;44.626;11.176;2023-10-09T10:54:20;24.55;;;3.10;;
16401;SDS011;8310;44.626;11.176;2023-10-09T10:57:13;18.70;;;3.42;;
16401;SDS011;8310;44.626;11.176;2023-10-09T10:59:57;13.55;;;2.88;;
16401;SDS011;8310;44.626;11.176;2023-10-09T11:02:38;19.15;;;3.05;;
16401;SDS011;8310;44.626;11.176;2023-10-09T11:05:06;20.55;;;3.00;;
16401;SDS011;8310;44.626;11.176;2023-10-09T11:07:51;20.67;;;3.45;;
16401;SDS011;8310;44.626;11.176;2023-10-09T11:10:24;24.50;;;3.53;;
16401;SDS011;8310;44.626;11.176;2023-10-09T11:12:57;20.52;;;3.42;;
16401;SDS011;8310;44.626;11.176;2023-10-09T11:15:54;17.35;;;3.45;;
16401;SDS011;8310;44.626;11.176;2023-10-09T11:18:39;25.13;;;3.40;;
16401;SDS011;8310;44.626;11.176;2023-10-09T11:21:13;21.55;;;3.53;;
16401;SDS011;8310;44.626;11.176;2023-10-09T11:23:57;28.70;;;4.10;;
16401;SDS011;8310;44.626;11.176;2023-10-09T11:26:47;24.52;;;3.17;;
16401;SDS011;8310;44.626;11.176;2023-10-09T11:29:20;28.85;;;3.15;;
16401;SDS011;8310;44.626;11.176;2023-10-09T11:32:15;18.88;;;3.70;;
16401;SDS011;8310;44.626;11.176;2023-10-09T11:34:43;19.85;;;3.30;;
16401;SDS011;8310;44.626;11.176;2023-10-09T11:37:17;23.65;;;3.95;;
16401;SDS011;8310;44.626;11.176;2023-10-09T11:42:24;28.98;;;3.53;;
16401;SDS011;8310;44.626;11.176;2023-10-09T11:45:01;24.02;;;3.60;;
16401;SDS011;8310;44.626;11.176;2023-10-09T11:47:46;24.13;;;3.55;;
16401;SDS011;8310;44.626;11.176;2023-10-09T11:53:16;19.17;;;3.72;;
16401;SDS011;8310;44.626;11.176;2023-10-09T11:55:58;19.50;;;3.95;;
16401;SDS011;8310;44.626;11.176;2023-10-09T11:58:26;43.47;;;3.85;;
16401;SDS011;8310;44.626;11.176;2023-10-09T12:00:54;20.52;;;3.20;;
16401;SDS011;8310;44.626;11.176;2023-10-09T12:03:26;18.02;;;3.35;;
16401;SDS011;8310;44.626;11.176;2023-10-09T12:05:56;23.25;;;3.50;;
16401;SDS011;8310;44.626;11.176;2023-10-09T12:08:25;15.90;;;3.53;;
16401;SDS011;8310;44.626;11.176;2023-10-09T12:10:53;21.25;;;3.90;;
16401;SDS011;8310;44.626;11.176;2023-10-09T12:13:22;22.70;;;3.60;;
16401;SDS011;8310;44.626;11.176;2023-10-09T12:15:50;17.63;;;3.78;;
16401;SDS011;8310;44.626;11.176;2023-10-09T12:18:19;19.15;;;3.78;;
16401;SDS011;8310;44.626;11.176;2023-10-09T12:20:48;20.75;;;3.50;;
16401;SDS011;8310;44.626;11.176;2023-10-09T12:23:27;24.05;;;4.38;;
16401;SDS011;8310;44.626;11.176;2023-10-09T12:28:22;21.52;;;4.03;;
16401;SDS011;8310;44.626;11.176;2023-10-09T12:30:50;21.55;;;3.67;;
16401;SDS011;8310;44.626;11.176;2023-10-09T12:33:18;14.45;;;3.03;;
16401;SDS011;8310;44.626;11.176;2023-10-09T12:35:54;20.45;;;3.67;;
16401;SDS011;8310;44.626;11.176;2023-10-09T12:38:25;22.80;;;3.58;;
16401;SDS011;8310;44.626;11.176;2023-10-09T12:41:00;15.85;;;3.10;;
16401;SDS011;8310;44.626;11.176;2023-10-09T12:43:33;20.80;;;3.92;;
16401;SDS011;8310;44.626;11.176;2023-10-09T12:46:04;21.80;;;3.40;;
16401;SDS011;8310;44.626;11.176;2023-10-09T12:48:33;17.65;;;3.00;;
16401;SDS011;8310;44.626;11.176;2023-10-09T12:53:31;23.77;;;3.53;;
16401;SDS011;8310;44.626;11.176;2023-10-09T12:55:59;20.08;;;3.42;;
16401;SDS011;8310;44.626;11.176;2023-10-09T12:58:26;21.67;;;3.47;;
16401;SDS011;8310;44.626;11.176;2023-10-09T13:00:54;21.45;;;3.90;;
16401;SDS011;8310;44.626;11.176;2023-10-09T13:03:21;28.17;;;3.63;;
16401;SDS011;8310;44.626;11.176;2023-10-09T13:05:53;22.40;;;4.00;;
16401;SDS011;8310;44.626;11.176;2023-10-09T13:08:23;30.73;;;3.72;;
16401;SDS011;8310;44.626;11.176;2023-10-09T13:10:57;16.50;;;3.33;;
16401;SDS011;8310;44.626;11.176;2023-10-09T13:13:33;22.63;;;3.95;;
16401;SDS011;8310;44.626;11.176;2023-10-09T13:16:13;20.75;;;3.38;;
16401;SDS011;8310;44.626;11.176;2023-10-09T13:18:48;13.60;;;3.20;;
16401;SDS011;8310;44.626;11.176;2023-10-09T13:21:17;19.20;;;3.50;;
16401;SDS011;8310;44.626;11.176;2023-10-09T13:23:47;30.73;;;4.20;;
16401;SDS011;8310;44.626;11.176;2023-10-09T13:26:15;22.00;;;3.63;;
16401;SDS011;8310;44.626;11.176;2023-10-09T13:28:49;25.75;;;4.40;;
16401;SDS011;8310;44.626;11.176;2023-10-09T13:31:18;27.45;;;3.53;;
16401;SDS011;8310;44.626;11.176;2023-10-09T13:33:46;17.48;;;3.78;;
16401;SDS011;8310;44.626;11.176;2023-10-09T13:36:15;22.63;;;3.45;;
16401;SDS011;8310;44.626;11.176;2023-10-09T13:38:44;25.92;;;3.42;;
16401;SDS011;8310;44.626;11.176;2023-10-09T13:41:13;25.55;;;3.97;;
16401;SDS011;8310;44.626;11.176;2023-10-09T13:43:43;21.67;;;3.72;;
16401;SDS011;8310;44.626;11.176;2023-10-09T13:46:11;12.63;;;3.33;;
16401;SDS011;8310;44.626;11.176;2023-10-09T13:51:08;21.80;;;3.70;;
16401;SDS011;8310;44.626;11.176;2023-10-09T13:53:39;26.00;;;3.67;;
16401;SDS011;8310;44.626;11.176;2023-10-09T13:56:22;23.67;;;3.67;;
16401;SDS011;8310;44.626;11.176;2023-10-09T13:58:52;23.58;;;4.25;;
16401;SDS011;8310;44.626;11.176;2023-10-09T14:01:20;20.48;;;3.63;;
16401;SDS011;8310;44.626;11.176;2023-10-09T14:03:54;25.40;;;3.60;;
16401;SDS011;8310;44.626;11.176;2023-10-09T14:06:22;20.10;;;3.42;;
16401;SDS011;8310;44.626;11.176;2023-10-09T14:08:57;14.90;;;3.35;;
16401;SDS011;8310;44.626;11.176;2023-10-09T14:11:28;23.60;;;3.33;;
16401;SDS011;8310;44.626;11.176;2023-10-09T14:13:56;26.92;;;3.80;;
16401;SDS011;8310;44.626;11.176;2023-10-09T14:16:25;24.20;;;4.22;;
16401;SDS011;8310;44.626;11.176;2023-10-09T14:18:56;19.90;;;3.30;;
16401;SDS011;8310;44.626;11.176;2023-10-09T14:21:25;18.35;;;3.20;;
16401;SDS011;8310;44.626;11.176;2023-10-09T14:23:55;27.67;;;3.78;;
16401;SDS011;8310;44.626;11.176;2023-10-09T14:26:28;18.98;;;3.97;;
16401;SDS011;8310;44.626;11.176;2023-10-09T14:28:59;27.70;;;3.40;;
16401;SDS011;8310;44.626;11.176;2023-10-09T14:31:26;18.90;;;3.53;;
16401;SDS011;8310;44.626;11.176;2023-10-09T14:36:22;40.25;;;3.65;;
16401;SDS011;8310;44.626;11.176;2023-10-09T14:38:58;31.45;;;4.05;;
16401;SDS011;8310;44.626;11.176;2023-10-09T14:41:27;20.08;;;3.55;;
16401;SDS011;8310;44.626;11.176;2023-10-09T14:43:58;26.38;;;3.40;;
16401;SDS011;8310;44.626;11.176;2023-10-09T14:46:25;23.92;;;3.53;;
16401;SDS011;8310;44.626;11.176;2023-10-09T14:48:54;62.60;;;4.90;;
16401;SDS011;8310;44.626;11.176;2023-10-09T14:51:22;26.77;;;3.53;;
16401;SDS011;8310;44.626;11.176;2023-10-09T14:53:56;19.95;;;3.90;;
16401;SDS011;8310;44.626;11.176;2023-10-09T14:56:29;18.33;;;3.50;;
16401;SDS011;8310;44.626;11.176;2023-10-09T14:58:58;24.15;;;4.18;;
16401;SDS011;8310;44.626;11.176;2023-10-09T15:01:26;24.05;;;3.65;;
16401;SDS011;8310;44.626;11.176;2023-10-09T15:03:56;26.08;;;3.28;;
16401;SDS011;8310;44.626;11.176;2023-10-09T15:06:24;26.05;;;3.60;;
16401;SDS011;8310;44.626;11.176;2023-10-09T15:08:53;33.90;;;3.88;;
16401;SDS011;8310;44.626;11.176;2023-10-09T15:11:23;21.20;;;3.55;;
16401;SDS011;8310;44.626;11.176;2023-10-09T15:13:55;35.97;;;4.30;;
16401;SDS011;8310;44.626;11.176;2023-10-09T15:16:24;19.52;;;3.33;;
16401;SDS011;8310;44.626;11.176;2023-10-09T15:18:55;24.48;;;3.80;;
16401;SDS011;8310;44.626;11.176;2023-10-09T15:21:23;19.38;;;4.00;;
16401;SDS011;8310;44.626;11.176;2023-10-09T15:23:52;33.83;;;3.75;;
16401;SDS011;8310;44.626;11.176;2023-10-09T15:26:21;18.95;;;3.65;;
16401;SDS011;8310;44.626;11.176;2023-10-09T15:28:49;20.83;;;3.65;;
16401;SDS011;8310;44.626;11.176;2023-10-09T15:31:18;20.75;;;3.65;;
16401;SDS011;8310;44.626;11.176;2023-10-09T15:33:47;22.95;;;3.90;;
16401;SDS011;8310;44.626;11.176;2023-10-09T15:36:17;61.00;;;4.78;;
16401;SDS011;8310;44.626;11.176;2023-10-09T15:38:45;29.40;;;4.10;;
16401;SDS011;8310;44.626;11.176;2023-10-09T15:41:13;25.27;;;3.63;;
16401;SDS011;8310;44.626;11.176;2023-10-09T15:43:42;22.80;;;3.80;;
16401;SDS011;8310;44.626;11.176;2023-10-09T15:46:10;30.08;;;3.83;;
16401;SDS011;8310;44.626;11.176;2023-10-09T15:48:42;20.73;;;4.35;;
16401;SDS011;8310;44.626;11.176;2023-10-09T15:51:11;25.50;;;3.53;;
16401;SDS011;8310;44.626;11.176;2023-10-09T15:53:40;25.42;;;4.00;;
16401;SDS011;8310;44.626;11.176;2023-10-09T15:56:08;72.18;;;5.50;;
16401;SDS011;8310;44.626;11.176;2023-10-09T15:58:37;21.48;;;3.88;;
16401;SDS011;8310;44.626;11.176;2023-10-09T16:01:07;34.33;;;4.10;;